Time;durP1;ratioP1;P1;durP2;ratioP2;P2;SDS_P1;SDS_P2;PMS_P1;PMS_P2;Temp;Humidity;BMP_temperature;BMP_pressure;BME280_temperature;BME280_humidity;BME280_pressure;Samples;Min_cycle;Max_cycle;Signal;HPM_P1;HPM_P2
2022/05/08 00:00:08;;;;;;;9.77;6.85;;;13.30;92.20;;;;;;4975905;28;20066;-88
2022/05/08 00:02:40;;;;;;;12.93;7.78;;;13.30;92.20;;;;;;4959510;28;20077;-88
2022/05/08 00:05:20;;;;;;;12.35;7.95;;;13.30;92.30;;;;;;4959150;28;20026;-88
2022/05/08 00:07:48;;;;;;;10.82;7.85;;;13.20;92.30;;;;;;4944665;28;20065;-88
2022/05/08 00:10:39;;;;;;;12.02;7.85;;;13.20;92.50;;;;;;4977292;28;20030;-88
2022/05/08 00:13:25;;;;;;;;;;;;;;;;;;;;;
2022/05/08 00:15:56;;;;;;;13.02;8.48;;;13.00;92.50;;;;;;4995701;28;20421;-88
2022/05/08 00:18:25;;;;;;;12.38;8.63;;;12.90;92.80;;;;;;4962240;28;20069;-88
2022/05/08 00:20:53;;;;;;;13.18;8.15;;;12.80;92.80;;;;;;4995140;28;20118;-89
2022/05/08 00:26:28;;;;;;;11.23;7.88;;;12.80;92.90;;;;;;4970786;28;20042;-88
2022/05/08 00:29:04;;;;;;;;;;;;;;;;;;;;;
2022/05/08 00:31:35;;;;;;;12.35;8.10;;;12.80;92.80;;;;;;4994831;28;20060;-88
2022/05/08 00:34:10;;;;;;;15.50;9.25;;;12.80;92.90;;;;;;4977699;28;20470;-88
2022/05/08 00:37:13;;;;;;;14.50;8.77;;;12.70;93.00;;;;;;4978056;28;20387;-87
2022/05/08 00:39:51;;;;;;;12.93;8.70;;;12.60;93.10;;;;;;4995030;28;20146;-88
2022/05/08 00:42:19;;;;;;;12.35;8.05;;;12.60;93.20;;;;;;4995150;28;20471;-88
2022/05/08 00:44:59;;;;;;;11.65;8.65;;;12.60;93.10;;;;;;4994907;28;20108;-88
2022/05/08 00:47:54;;;;;;;12.45;9.38;;;12.50;93.10;;;;;;4962963;28;20058;-87
2022/05/08 00:50:27;;;;;;;11.90;8.45;;;12.60;93.20;;;;;;4970997;28;20474;-88
2022/05/08 00:52:53;;;;;;;11.88;8.68;;;12.60;93.20;;;;;;4977413;28;20166;-88
2022/05/08 00:55:32;;;;;;;;;;;;;;;;;;;;;
2022/05/08 00:58:19;;;;;;;12.45;8.50;;;12.60;93.10;;;;;;4995154;28;20022;-87
2022/05/08 01:01:10;;;;;;;11.70;7.78;;;12.60;93.00;;;;;;4977586;28;20391;-88
2022/05/08 01:03:55;;;;;;;11.02;7.85;;;12.70;92.90;;;;;;4985938;28;20046;-89
2022/05/08 01:06:35;;;;;;;13.65;8.45;;;12.70;92.80;;;;;;4977565;28;20077;-89
2022/05/08 01:09:26;;;;;;;;;;;;;;;;;;;;;
2022/05/08 01:12:06;;;;;;;10.98;7.38;;;12.60;92.80;;;;;;4994418;28;20022;-88
2022/05/08 01:15:03;;;;;;;12.98;7.65;;;12.60;92.80;;;;;;4961737;28;20049;-89
2022/05/08 01:17:31;;;;;;;11.25;6.30;;;12.70;92.70;;;;;;4950423;28;20048;-88
2022/05/08 01:20:02;;;;;;;12.73;7.20;;;12.60;92.60;;;;;;4977880;28;20041;-89
2022/05/08 01:25:25;;;;;;;11.38;6.57;;;12.60;92.50;;;;;;4931958;28;20494;-88
2022/05/08 01:28:04;;;;;;;14.00;6.60;;;12.60;92.40;;;;;;4982996;28;20050;-88
2022/05/08 01:30:35;;;;;;;9.25;5.40;;;12.60;92.20;;;;;;4999671;28;20035;-89
2022/05/08 01:33:21;;;;;;;17.08;6.63;;;12.50;92.20;;;;;;4985332;28;20022;-89
2022/05/08 01:36:02;;;;;;;;;;;;;;;;;;;;;
2022/05/08 01:38:48;;;;;;;;;;;;;;;;;;;;;
2022/05/08 01:41:37;;;;;;;12.75;5.93;;;12.50;91.90;;;;;;4994930;28;20029;-88
2022/05/08 01:44:03;;;;;;;12.68;5.28;;;12.50;91.90;;;;;;4977808;28;20026;-89
2022/05/08 01:46:37;;;;;;;9.48;4.53;;;12.60;91.80;;;;;;4961048;28;20457;-89
2022/05/08 01:49:05;;;;;;;10.00;4.68;;;12.60;91.70;;;;;;4976799;28;20426;-89
2022/05/08 01:51:33;;;;;;;13.18;4.78;;;12.60;91.60;;;;;;4960631;28;20372;-88
2022/05/08 01:54:02;;;;;;;10.35;5.07;;;12.50;91.40;;;;;;4961438;28;20394;-88
2022/05/08 01:56:40;;;;;;;17.35;5.78;;;12.60;91.40;;;;;;4977367;28;20049;-88
2022/05/08 01:59:15;;;;;;;15.70;5.10;;;12.60;91.30;;;;;;4977470;28;20109;-88
2022/05/08 02:01:46;;;;;;;15.48;5.00;;;12.60;91.30;;;;;;4980249;28;20117;-89
2022/05/08 02:04:15;;;;;;;16.20;5.10;;;12.60;91.10;;;;;;4980608;28;20035;-88
2022/05/08 02:06:53;;;;;;;18.15;5.72;;;12.60;90.90;;;;;;4980683;28;20494;-88
2022/05/08 02:09:25;;;;;;;17.90;5.63;;;12.50;90.90;;;;;;4980515;28;20034;-88
2022/05/08 02:11:58;;;;;;;15.82;5.07;;;12.40;91.10;;;;;;4980489;28;20066;-88
2022/05/08 02:14:43;;;;;;;13.10;5.10;;;12.40;90.90;;;;;;4965124;28;20078;-88
2022/05/08 02:17:11;;;;;;;16.58;5.22;;;12.40;90.90;;;;;;4980727;28;20034;-88
2022/05/08 02:19:47;;;;;;;15.88;4.60;;;12.40;90.80;;;;;;4980695;28;20019;-88
2022/05/08 02:22:48;;;;;;;;;;;;;;;;;;;;;
2022/05/08 02:25:27;;;;;;;13.75;5.13;;;12.20;90.80;;;;;;4984570;28;20025;-88
2022/05/08 02:28:06;;;;;;;16.17;5.53;;;12.20;90.90;;;;;;4980712;28;20049;-88
2022/05/08 02:30:55;;;;;;;13.65;4.97;;;12.10;90.90;;;;;;4964797;28;20050;-88
2022/05/08 02:33:31;;;;;;;14.60;5.47;;;12.10;91.00;;;;;;4965722;28;20061;-88
2022/05/08 02:36:35;;;;;;;;;;;;;;;;;;;;;
2022/05/08 02:39:09;;;;;;;14.00;4.68;;;12.10;91.00;;;;;;4984521;28;20493;-88
2022/05/08 02:42:04;;;;;;;;;;;;;;;;;;;;;
2022/05/08 02:45:28;;;;;;;19.45;6.03;;;12.00;91.00;;;;;;4962266;28;20394;-88
2022/05/08 02:48:02;;;;;;;14.13;4.60;;;11.90;91.00;;;;;;4960701;28;20023;-89
2022/05/08 02:50:47;;;;;;;15.38;4.50;;;11.90;91.00;;;;;;4976659;28;20033;-88
2022/05/08 02:53:43;;;;;;;;;;;;;;;;;;;;;
2022/05/08 02:59:40;;;;;;;18.88;4.85;;;11.90;91.10;;;;;;4978758;28;20135;-88
2022/05/08 03:02:10;;;;;;;16.90;5.47;;;11.80;91.00;;;;;;4946408;28;20062;-88
2022/05/08 03:04:54;;;;;;;20.30;5.60;;;11.70;91.10;;;;;;4977222;28;20030;-88
2022/05/08 03:07:33;;;;;;;;;;;;;;;;;;;;;
2022/05/08 03:10:17;;;;;;;13.70;3.95;;;11.70;91.30;;;;;;5020351;28;20026;-87
2022/05/08 03:13:21;;;;;;;12.07;3.80;;;11.70;91.20;;;;;;4985723;28;20054;-87
2022/05/08 03:16:04;;;;;;;16.73;4.65;;;11.80;91.20;;;;;;4980097;28;20050;-87
2022/05/08 03:18:40;;;;;;;21.63;4.80;;;11.80;91.00;;;;;;4956137;28;20034;-88
2022/05/08 03:23:58;;;;;;;13.55;4.20;;;11.80;91.00;;;;;;4996181;28;20057;-88
2022/05/08 03:26:38;;;;;;;;;;;;;;;;;;;;;
2022/05/08 03:29:32;;;;;;;15.20;5.22;;;11.80;90.90;;;;;;4996434;28;20475;-87
2022/05/08 03:32:03;;;;;;;16.77;4.43;;;11.70;90.80;;;;;;4995098;28;20398;-88
2022/05/08 03:34:58;;;;;;;16.60;4.60;;;11.60;90.90;;;;;;4978757;28;20022;-88
2022/05/08 03:37:32;;;;;;;14.13;4.60;;;11.60;90.90;;;;;;4994846;28;20042;-88
2022/05/08 03:40:30;;;;;;;20.00;4.50;;;11.70;91.00;;;;;;4978584;28;20026;-88
2022/05/08 03:43:13;;;;;;;14.90;4.20;;;11.60;90.90;;;;;;4945777;28;20042;-89
2022/05/08 03:45:51;;;;;;;;;;;;;;;;;;;;;
2022/05/08 03:48:34;;;;;;;17.98;3.90;;;11.60;90.80;;;;;;4976825;28;20037;-88
2022/05/08 03:51:08;;;;;;;17.20;4.03;;;11.60;90.80;;;;;;4958702;28;20038;-88
2022/05/08 03:53:41;;;;;;;9.65;2.90;;;11.60;90.80;;;;;;4958954;28;20034;-87
2022/05/08 03:56:19;;;;;;;15.02;4.28;;;11.60;90.80;;;;;;4959568;28;20142;-88
2022/05/08 04:02:11;;;;;;;12.25;3.85;;;11.60;90.70;;;;;;4975613;28;20043;-88
2022/05/08 04:04:52;;;;;;;16.02;4.10;;;11.60;90.80;;;;;;4975320;28;20522;-88
2022/05/08 04:07:18;;;;;;;16.48;3.95;;;11.60;90.80;;;;;;4965511;28;20018;-89
2022/05/08 04:09:48;;;;;;;15.73;4.50;;;11.60;90.70;;;;;;4977496;28;20113;-88
2022/05/08 04:12:36;;;;;;;13.95;3.63;;;11.50;90.70;;;;;;4978000;28;20058;-89
2022/05/08 04:18:37;;;;;;;18.40;3.83;;;11.40;90.80;;;;;;4995185;28;20114;-88
2022/05/08 04:21:21;;;;;;;12.48;4.05;;;11.40;90.90;;;;;;4978061;28;20054;-89
2022/05/08 04:27:02;;;;;;;11.52;3.45;;;11.40;90.90;;;;;;4994627;28;20121;-88
2022/05/08 04:29:30;;;;;;;10.75;3.50;;;11.40;90.90;;;;;;4967801;28;20037;-90
2022/05/08 04:32:04;;;;;;;13.27;3.60;;;11.40;90.80;;;;;;4962101;28;20066;-89
2022/05/08 04:34:37;;;;;;;14.20;3.60;;;11.40;90.80;;;;;;4977447;28;20113;-88
2022/05/08 04:37:35;;;;;;;13.07;3.80;;;11.30;90.80;;;;;;4962314;28;20027;-88
2022/05/08 04:40:06;;;;;;;14.13;4.07;;;11.30;90.80;;;;;;4995305;28;20030;-89
2022/05/08 04:42:40;;;;;;;13.98;4.05;;;11.30;90.90;;;;;;4977926;28;20022;-88
2022/05/08 04:45:33;;;;;;;16.27;4.10;;;11.30;90.90;;;;;;4984524;28;20034;-88
2022/05/08 04:48:30;;;;;;;13.40;3.72;;;11.30;90.90;;;;;;5006082;28;20034;-88
2022/05/08 04:51:21;;;;;;;15.45;4.00;;;11.30;90.90;;;;;;4994659;28;20041;-87
2022/05/08 04:53:52;;;;;;;19.08;4.57;;;11.30;90.90;;;;;;5014209;28;20041;-88
2022/05/08 04:56:26;;;;;;;12.68;3.88;;;11.20;90.90;;;;;;4987741;28;20037;-88
2022/05/08 05:02:47;;;;;;;13.85;3.60;;;11.20;91.00;;;;;;4975756;28;20035;-88
2022/05/08 05:05:16;;;;;;;12.55;3.90;;;11.10;91.10;;;;;;4958781;28;20034;-88
2022/05/08 05:08:01;;;;;;;;;;;;;;;;;;;;;
2022/05/08 05:10:35;;;;;;;16.67;4.10;;;11.10;91.10;;;;;;4984904;28;20048;-88
2022/05/08 05:13:03;;;;;;;13.57;4.28;;;11.10;91.10;;;;;;4961383;28;20038;-88
2022/05/08 05:15:47;;;;;;;;;;;;;;;;;;;;;
2022/05/08 05:18:16;;;;;;;14.35;4.68;;;11.10;91.10;;;;;;4974426;28;20475;-88
2022/05/08 05:20:49;;;;;;;20.20;4.00;;;11.00;91.10;;;;;;4958107;28;20034;-89
2022/05/08 05:23:30;;;;;;;12.70;3.40;;;11.00;91.10;;;;;;4959139;28;20499;-88
2022/05/08 05:28:53;;;;;;;12.80;3.50;;;11.10;91.10;;;;;;4961349;28;20038;-88
2022/05/08 05:31:29;;;;;;;12.55;3.75;;;11.10;91.10;;;;;;4973914;28;20046;-88
2022/05/08 05:37:39;;;;;;;17.10;3.90;;;11.10;91.00;;;;;;4978097;28;20119;-88
2022/05/08 05:40:29;;;;;;;11.68;3.60;;;11.20;90.90;;;;;;4978669;28;20118;-89
2022/05/08 05:43:13;;;;;;;10.38;3.05;;;11.20;90.90;;;;;;4959393;28;20134;-89
2022/05/08 05:49:38;;;;;;;13.70;4.10;;;11.30;90.70;;;;;;4958817;29;20049;-88
2022/05/08 05:52:27;;;;;;;11.60;3.45;;;11.20;90.60;;;;;;4980790;28;20035;-88
2022/05/08 05:55:04;;;;;;;11.25;3.10;;;11.20;90.60;;;;;;4978564;28;20035;-88
2022/05/08 05:57:39;;;;;;;15.75;4.20;;;11.20;90.70;;;;;;4977334;28;20058;-89
2022/05/08 06:00:30;;;;;;;12.85;4.00;;;11.20;90.70;;;;;;4977886;28;20360;-88
2022/05/08 06:03:01;;;;;;;9.20;3.38;;;11.30;90.70;;;;;;4977359;28;20106;-88
2022/05/08 06:05:45;;;;;;;7.97;3.00;;;11.30;90.60;;;;;;4977647;28;20054;-88
2022/05/08 06:08:49;;;;;;;11.43;3.13;;;11.40;90.50;;;;;;4960943;28;20472;-88
2022/05/08 06:11:42;;;;;;;15.50;3.55;;;11.40;90.50;;;;;;4976993;28;20035;-88
2022/05/08 06:14:10;;;;;;;14.40;4.20;;;11.40;90.30;;;;;;4963098;28;20035;-89
2022/05/08 06:16:43;;;;;;;11.68;3.33;;;11.40;90.20;;;;;;4960309;28;20031;-89
2022/05/08 06:19:12;;;;;;;10.23;3.08;;;11.40;90.20;;;;;;4963585;28;20030;-88
2022/05/08 06:21:42;;;;;;;14.25;3.95;;;11.50;90.20;;;;;;4973659;28;20034;-89
2022/05/08 06:24:08;;;;;;;11.90;3.60;;;11.50;90.10;;;;;;4978917;28;20034;-89
2022/05/08 06:27:02;;;;;;;;;;;;;;;;;;;;;
2022/05/08 06:29:39;;;;;;;10.32;2.78;;;11.50;90.00;;;;;;5002926;28;20073;-88
2022/05/08 06:32:21;;;;;;;;;;;;;;;;;;;;;
2022/05/08 06:35:06;;;;;;;;;;;;;;;;;;;;;
2022/05/08 06:37:44;;;;;;;;;;;;;;;;;;;;;
2022/05/08 06:40:44;;;;;;;;;;;;;;;;;;;;;
2022/05/08 06:46:31;;;;;;;11.23;3.22;;;11.80;89.40;;;;;;4984729;28;20030;-87
2022/05/08 06:49:08;;;;;;;11.00;3.75;;;11.80;89.10;;;;;;4976525;28;20035;-88
2022/05/08 06:52:22;;;;;;;9.35;2.83;;;11.80;89.00;;;;;;4975762;28;20022;-88
2022/05/08 06:54:50;;;;;;;15.95;3.28;;;11.80;88.90;;;;;;4976066;28;20050;-88
2022/05/08 06:57:28;;;;;;;13.45;3.15;;;11.90;88.80;;;;;;4979220;28;20093;-89
2022/05/08 07:03:07;;;;;;;;;;;;;;;;;;;;;
2022/05/08 07:09:12;;;;;;;15.68;3.88;;;12.20;87.90;;;;;;4966877;28;20034;-89
2022/05/08 07:15:16;;;;;;;;;;;;;;;;;;;;;
2022/05/08 07:18:35;;;;;;;;;;;;;;;;;;;;;
2022/05/08 07:21:19;;;;;;;;;;;;;;;;;;;;;
2022/05/08 07:24:09;;;;;;;9.98;2.72;;;12.30;86.50;;;;;;4976288;28;20117;-89
2022/05/08 07:27:11;;;;;;;9.13;2.58;;;12.40;86.40;;;;;;4960188;28;20027;-88
2022/05/08 07:32:38;;;;;;;9.63;2.65;;;12.50;86.40;;;;;;4988038;28;19913;-88
2022/05/08 07:38:46;;;;;;;;;;;;;;;;;;;;;
2022/05/08 07:41:49;;;;;;;9.93;3.00;;;12.50;85.30;;;;;;4936218;29;20046;-88
2022/05/08 07:44:33;;;;;;;;;;;;;;;;;;;;;
2022/05/08 07:50:47;;;;;;;12.63;3.05;;;12.70;84.80;;;;;;4996576;28;20053;-88
2022/05/08 07:56:36;;;;;;;;;;;;;;;;;;;;;
2022/05/08 07:59:15;;;;;;;6.57;2.22;;;12.90;84.50;;;;;;4980635;28;20031;-87
2022/05/08 08:01:53;;;;;;;9.43;2.35;;;13.00;84.50;;;;;;4980348;28;20030;-87
2022/05/08 08:04:34;;;;;;;;;;;;;;;;;;;;;
2022/05/08 08:07:22;;;;;;;;;;;13.10;84.10;;;;;;4998471;28;20066;-89
2022/05/08 08:10:22;;;;;;;11.32;3.08;;;13.10;83.40;;;;;;4988966;28;19906;-88
2022/05/08 08:13:26;;;;;;;8.57;2.55;;;13.10;83.30;;;;;;4991306;28;20066;-88
2022/05/08 08:15:56;;;;;;;9.85;2.50;;;13.10;83.60;;;;;;4983999;28;20098;-87
2022/05/08 08:18:56;;;;;;;10.20;2.80;;;13.20;83.10;;;;;;4975304;28;20458;-87
2022/05/08 08:21:52;;;;;;;;;;;;;;;;;;;;;
2022/05/08 08:24:32;;;;;;;9.75;2.63;;;13.40;82.70;;;;;;4979197;28;20746;-88
2022/05/08 08:27:07;;;;;;;8.07;2.17;;;13.50;82.50;;;;;;4961595;28;20058;-87
2022/05/08 08:30:04;;;;;;;9.35;2.70;;;13.50;82.20;;;;;;4961254;28;20482;-88
2022/05/08 08:32:57;;;;;;;11.10;2.80;;;13.70;81.90;;;;;;4964673;28;20054;-88
2022/05/08 08:35:26;;;;;;;7.57;2.22;;;13.70;81.70;;;;;;4962228;28;20042;-87
2022/05/08 08:38:28;;;;;;;;;;;;;;;;;;;;;
2022/05/08 08:41:16;;;;;;;;;;;;;;;;;;;;;
2022/05/08 08:49:25;;;;;;;11.27;2.85;;;13.80;79.70;;;;;;4995487;28;20037;-86
2022/05/08 08:52:13;;;;;;;8.00;3.20;;;13.80;79.70;;;;;;4976634;28;20030;-87
2022/05/08 08:55:10;;;;;;;6.45;2.47;;;13.90;79.60;;;;;;4977042;28;20023;-87
2022/05/08 08:57:42;;;;;;;8.10;2.08;;;14.00;79.50;;;;;;4976968;28;20355;-87
2022/05/08 09:00:56;;;;;;;;;;;;;;;;;;;;;
2022/05/08 09:04:00;;;;;;;9.52;2.70;;;14.20;79.80;;;;;;4986791;28;20053;-88
2022/05/08 09:06:56;;;;;;;;;;;;;;;;;;;;;
2022/05/08 09:10:14;;;;;;;7.03;2.88;;;14.30;78.90;;;;;;4995067;28;20386;-88
2022/05/08 09:12:33;;;;;;;;;;;;;;;;;;;;;
2022/05/08 09:15:21;;;;;;;8.13;2.40;;;14.40;77.60;;;;;;4996391;28;20030;-86
2022/05/08 09:17:58;;;;;;;7.57;2.50;;;14.40;77.70;;;;;;4958669;29;20043;-86
2022/05/08 09:20:57;;;;;;;;;;;;;;;;;;;;;
2022/05/08 09:24:13;;;;;;;;;;;;;;;;;;;;;
2022/05/08 09:26:49;;;;;;;9.32;2.47;;;14.50;77.10;;;;;;4940262;29;20495;-87
2022/05/08 09:29:24;;;;;;;8.23;2.28;;;14.60;77.00;;;;;;4923835;29;20031;-87
2022/05/08 09:32:00;;;;;;;6.55;2.17;;;14.70;77.20;;;;;;4939108;29;20106;-87
2022/05/08 09:34:58;;;;;;;6.18;2.00;;;14.70;77.10;;;;;;4942717;29;20018;-87
2022/05/08 09:37:27;;;;;;;9.27;2.88;;;14.80;77.20;;;;;;4958641;29;20038;-86
2022/05/08 09:40:27;;;;;;;6.97;2.80;;;14.90;76.80;;;;;;4959019;29;20024;-87
2022/05/08 09:43:01;;;;;;;7.47;2.35;;;14.90;75.50;;;;;;4962684;29;20031;-87
2022/05/08 09:45:47;;;;;;;7.68;2.30;;;14.90;75.80;;;;;;4959263;29;20063;-86
2022/05/08 09:48:23;;;;;;;7.68;2.78;;;15.00;75.50;;;;;;4948570;29;20031;-86
2022/05/08 09:51:27;;;;;;;8.75;2.63;;;15.00;74.50;;;;;;4961663;29;20027;-87
2022/05/08 09:54:14;;;;;;;10.43;3.08;;;15.10;74.60;;;;;;4977059;29;20023;-87
2022/05/08 09:57:02;;;;;;;;;;;;;;;;;;;;;
2022/05/08 10:00:07;;;;;;;5.32;2.13;;;15.10;73.70;;;;;;4971696;29;20067;-86
2022/05/08 10:08:50;;;;;;;6.78;2.60;;;15.40;73.10;;;;;;4954252;29;20090;-87
2022/05/08 10:15:07;;;;;;;4.78;2.00;;;15.40;72.70;;;;;;4957772;29;20149;-87
2022/05/08 10:18:15;;;;;;;;;;;;;;;;;;;;;
2022/05/08 10:21:19;;;;;;;;;;;;;;;;;;;;;
2022/05/08 10:23:54;;;;;;;8.98;2.53;;;15.60;70.80;;;;;;4958948;29;20031;-87
2022/05/08 10:26:30;;;;;;;7.78;2.53;;;15.70;70.30;;;;;;4957229;29;20365;-87
2022/05/08 10:29:26;;;;;;;7.93;2.33;;;15.70;69.60;;;;;;4956907;29;20023;-87
2022/05/08 10:32:06;;;;;;;;;;;;;;;;;;;;;
2022/05/08 10:34:44;;;;;;;5.43;1.92;;;15.60;67.80;;;;;;4956885;29;20028;-88
2022/05/08 10:37:39;;;;;;;7.53;2.47;;;15.70;68.70;;;;;;4957042;29;20110;-88
2022/05/08 10:40:31;;;;;;;8.65;2.45;;;15.70;68.10;;;;;;4957966;29;20048;-87
2022/05/08 10:43:26;;;;;;;7.25;2.35;;;15.70;68.70;;;;;;4956450;29;20034;-88
2022/05/08 10:46:01;;;;;;;7.50;2.20;;;15.80;68.90;;;;;;4957076;29;20078;-88
2022/05/08 10:48:44;;;;;;;6.53;2.13;;;15.80;69.00;;;;;;4941782;29;20040;-87
2022/05/08 10:51:23;;;;;;;6.15;2.10;;;16.00;69.00;;;;;;4956912;29;20031;-88
2022/05/08 10:54:19;;;;;;;;;;;;;;;;;;;;;
2022/05/08 10:57:01;;;;;;;6.90;2.40;;;16.10;67.50;;;;;;4953733;29;20127;-87
2022/05/08 11:00:02;;;;;;;;;;;;;;;;;;;;;
2022/05/08 11:02:54;;;;;;;7.72;2.60;;;16.20;66.70;;;;;;4957912;29;20043;-87
2022/05/08 11:05:41;;;;;;;6.28;2.40;;;16.20;67.30;;;;;;4940950;29;20031;-87
2022/05/08 11:08:32;;;;;;;6.88;2.05;;;16.30;67.30;;;;;;4956359;29;20066;-87
2022/05/08 11:11:10;;;;;;;11.32;2.75;;;16.40;67.70;;;;;;4957297;29;20026;-86
2022/05/08 11:13:47;;;;;;;6.75;1.80;;;16.40;66.50;;;;;;4955953;29;20035;-87
2022/05/08 11:16:44;;;;;;;;;;;;;;;;;;;;;
2022/05/08 11:22:50;;;;;;;;;;;;;;;;;;;;;
2022/05/08 11:28:44;;;;;;;4.88;2.03;;;16.50;64.90;;;;;;4966389;28;20517;-90
2022/05/08 11:37:45;;;;;;;6.95;2.08;;;16.60;65.40;;;;;;4968249;28;20030;-90
2022/05/08 11:43:49;;;;;;;4.93;2.03;;;16.80;66.10;;;;;;4991881;28;20079;-89
2022/05/08 11:46:43;;;;;;;6.10;2.15;;;16.90;66.20;;;;;;4998384;28;20014;-89
2022/05/08 11:49:18;;;;;;;4.95;2.10;;;17.00;65.80;;;;;;4976036;28;20035;-89
2022/05/08 11:51:56;;;;;;;8.65;2.28;;;17.10;65.90;;;;;;4960732;28;20492;-89
2022/05/08 11:54:43;;;;;;;7.25;2.20;;;17.20;64.90;;;;;;4959648;28;20067;-89
2022/05/08 11:57:21;;;;;;;5.70;2.00;;;17.20;63.90;;;;;;4956048;29;20035;-90
2022/05/08 11:59:50;;;;;;;4.63;1.90;;;17.30;64.20;;;;;;4972408;28;20055;-89
2022/05/08 12:02:17;;;;;;;6.40;1.90;;;17.30;64.00;;;;;;4972154;28;20373;-88
2022/05/08 12:05:06;;;;;;;4.68;1.75;;;17.40;63.60;;;;;;4971414;28;20034;-89
2022/05/08 12:08:06;;;;;;;5.05;1.80;;;17.40;63.70;;;;;;4973771;28;20039;-89
2022/05/08 12:10:36;;;;;;;8.38;1.80;;;17.50;63.20;;;;;;4958901;28;20190;-89
2022/05/08 12:13:33;;;;;;;;;;;;;;;;;;;;;
2022/05/08 12:16:22;;;;;;;2.80;1.50;;;17.60;63.60;;;;;;4979182;28;20054;-89
2022/05/08 12:19:35;;;;;;;7.35;2.20;;;17.60;63.70;;;;;;4977739;28;20046;-89
2022/05/08 12:22:43;;;;;;;7.85;1.80;;;17.70;63.10;;;;;;4977564;28;20022;-89
2022/05/08 12:25:20;;;;;;;9.20;2.05;;;17.70;62.30;;;;;;4922924;28;20035;-91
2022/05/08 12:27:53;;;;;;;4.65;1.90;;;17.70;61.90;;;;;;4977350;28;20134;-89
2022/05/08 12:30:22;;;;;;;4.32;1.58;;;17.70;61.50;;;;;;4994416;28;20061;-88
2022/05/08 12:35:46;;;;;;;;;;;17.80;61.40;;;;;;4980839;28;20483;-89
2022/05/08 12:38:19;;;;;;;5.00;1.77;;;17.80;60.30;;;;;;4993878;28;19906;-88
2022/05/08 12:44:22;;;;;;;5.60;1.88;;;17.80;60.50;;;;;;4964163;28;20034;-90
2022/05/08 12:50:50;;;;;;;3.70;1.27;;;17.80;60.80;;;;;;4898655;29;20033;-90
2022/05/08 12:53:51;;;;;;;;;;;;;;;;;;;;;
2022/05/08 12:57:02;;;;;;;;;;;;;;;;;;;;;
2022/05/08 13:03:15;;;;;;;6.63;2.05;;;18.10;60.90;;;;;;4951019;28;20438;-89
2022/05/08 13:06:04;;;;;;;3.45;1.30;;;18.20;60.30;;;;;;4975295;28;20026;-89
2022/05/08 13:09:10;;;;;;;3.38;1.48;;;18.20;60.60;;;;;;4960655;28;20373;-90
2022/05/08 13:12:22;;;;;;;;;;;;;;;;;;;;;
2022/05/08 13:15:21;;;;;;;4.03;1.63;;;18.30;58.70;;;;;;4994793;28;20042;-89
2022/05/08 13:18:31;;;;;;;3.25;1.50;;;18.30;58.90;;;;;;4993049;28;20050;-90
2022/05/08 13:21:49;;;;;;;;;;;;;;;;;;;;;
2022/05/08 13:24:40;;;;;;;4.35;1.63;;;18.50;59.00;;;;;;4935678;29;20481;-89
2022/05/08 13:28:35;;;;;;;6.35;1.60;;;18.50;59.00;;;;;;4927331;29;20484;-90
2022/05/08 13:31:12;;;;;;;4.05;1.38;;;18.60;59.20;;;;;;4931950;29;20105;-90
2022/05/08 13:40:23;;;;;;;;;;;;;;;;;;;;;
2022/05/08 13:46:16;;;;;;;3.88;1.25;;;18.70;58.80;;;;;;4984001;28;20037;-90
2022/05/08 13:55:17;;;;;;;2.67;1.20;;;18.80;58.20;;;;;;4967212;28;20574;-90
2022/05/08 13:57:49;;;;;;;4.10;1.52;;;18.80;58.30;;;;;;4955147;28;20031;-89
2022/05/08 14:00:33;;;;;;;5.35;1.55;;;18.80;57.70;;;;;;4961257;28;20030;-89
2022/05/08 14:03:09;;;;;;;5.32;1.20;;;18.90;57.80;;;;;;4977452;28;20089;-88
2022/05/08 14:05:57;;;;;;;5.10;1.75;;;18.90;57.70;;;;;;4964227;28;20038;-89
2022/05/08 14:08:51;;;;;;;4.03;1.63;;;18.90;56.20;;;;;;4966365;28;20142;-88
2022/05/08 14:12:13;;;;;;;;;;;;;;;;;;;;;
2022/05/08 14:14:50;;;;;;;3.70;1.60;;;18.90;56.00;;;;;;4997264;28;20039;-89
2022/05/08 14:17:45;;;;;;;3.10;1.50;;;18.90;56.70;;;;;;4976982;28;20109;-89
2022/05/08 14:20:59;;;;;;;2.25;1.08;;;18.90;56.80;;;;;;4976376;28;20081;-88
2022/05/08 14:27:06;;;;;;;4.38;1.75;;;19.00;57.00;;;;;;4927971;29;20052;-88
2022/05/08 14:29:44;;;;;;;3.72;1.55;;;19.10;56.30;;;;;;4905882;29;20051;-88
2022/05/08 14:38:05;;;;;;;3.70;1.20;;;19.00;55.60;;;;;;4936893;29;20491;-88
2022/05/08 14:41:02;;;;;;;3.10;1.20;;;19.10;55.70;;;;;;4905627;29;20083;-88
2022/05/08 14:43:52;;;;;;;;;;;;;;;;;;;;;
2022/05/08 14:46:41;;;;;;;4.38;1.33;;;19.10;53.50;;;;;;4909507;29;20040;-88
2022/05/08 14:49:26;;;;;;;3.80;1.30;;;19.10;54.20;;;;;;4935590;29;20108;-89
2022/05/08 14:52:06;;;;;;;2.40;1.40;;;19.10;54.30;;;;;;4969907;28;20041;-88
2022/05/08 14:55:02;;;;;;;2.92;1.10;;;19.20;54.60;;;;;;4972938;28;20063;-87
2022/05/08 15:00:28;;;;;;;5.65;3.10;;;19.20;54.30;;;;;;4970264;28;20120;-88
2022/05/08 15:09:27;;;;;;;5.10;2.45;;;19.30;54.50;;;;;;4949333;29;20065;-86
2022/05/08 15:12:46;;;;;;;;;;;;;;;;;;;;;
2022/05/08 15:15:16;;;;;;;3.08;1.60;;;19.30;53.80;;;;;;4966267;28;20031;-88
2022/05/08 15:21:07;;;;;;;3.15;1.58;;;19.20;53.80;;;;;;5002140;28;20398;-87
2022/05/08 15:24:06;;;;;;;;;;;;;;;;;;;;;
2022/05/08 15:27:02;;;;;;;7.28;2.85;;;19.30;54.20;;;;;;5001740;28;20042;-87
2022/05/08 15:30:15;;;;;;;4.07;2.13;;;19.30;53.60;;;;;;4995395;28;20030;-88
2022/05/08 15:35:46;;;;;;;;;;;;;;;;;;;;;
2022/05/08 15:38:27;;;;;;;4.75;1.77;;;19.30;52.70;;;;;;5018994;28;20026;-88
2022/05/08 15:41:23;;;;;;;;;;;;;;;;;;;;;
2022/05/08 15:50:54;;;;;;;;;;;;;;;;;;;;;
2022/05/08 15:54:05;;;;;;;3.90;2.15;;;19.20;51.80;;;;;;4995812;28;20068;-89
2022/05/08 16:03:10;;;;;;;;;;;;;;;;;;;;;
2022/05/08 16:09:15;;;;;;;5.38;2.38;;;19.30;53.10;;;;;;4981847;28;20030;-88
2022/05/08 16:12:07;;;;;;;;;;;;;;;;;;;;;
2022/05/08 16:23:27;;;;;;;;;;;;;;;;;;;;;
2022/05/08 16:26:09;;;;;;;4.97;1.75;;;19.30;53.60;;;;;;4937249;29;20027;-89
2022/05/08 16:32:10;;;;;;;;;;;;;;;;;;;;;
2022/05/08 16:35:15;;;;;;;;;;;;;;;;;;;;;
2022/05/08 16:38:28;;;;;;;;;;;;;;;;;;;;;
2022/05/08 16:41:19;;;;;;;4.68;1.58;;;19.20;53.80;;;;;;4900640;29;20032;-90
2022/05/08 16:47:56;;;;;;;;;;;;;;;;;;;;;
2022/05/08 16:51:25;;;;;;;;;;;;;;;;;;;;;
2022/05/08 16:58:09;;;;;;;;;;;;;;;;;;;;;
2022/05/08 17:01:05;;;;;;;;;;;;;;;;;;;;;
2022/05/08 17:04:39;;;;;;;3.28;1.50;;;19.10;53.30;;;;;;4975008;28;20475;-90
2022/05/08 17:07:50;;;;;;;5.07;2.13;;;19.00;53.20;;;;;;4961357;28;20032;-89
2022/05/08 17:10:28;;;;;;;;;;;;;;;;;;;;;
2022/05/08 17:19:28;;;;;;;;;;;;;;;;;;;;;
2022/05/08 17:22:41;;;;;;;3.63;1.50;;;18.90;53.20;;;;;;5001562;28;20094;-91
2022/05/08 17:29:03;;;;;;;3.63;1.45;;;18.90;53.70;;;;;;5006631;28;20042;-91
2022/05/08 17:32:12;;;;;;;;;;;;;;;;;;;;;
2022/05/08 17:35:34;;;;;;;;;;;;;;;;;;;;;
2022/05/08 17:41:44;;;;;;;8.55;2.15;;;18.80;53.90;;;;;;4950094;28;20061;-88
2022/05/08 17:44:48;;;;;;;;;;;;;;;;;;;;;
2022/05/08 17:47:30;;;;;;;8.35;2.20;;;18.70;53.40;;;;;;5006830;28;20137;-86
2022/05/08 17:50:20;;;;;;;3.13;1.70;;;18.70;53.70;;;;;;4971585;28;20117;-87
2022/05/08 17:53:05;;;;;;;2.88;1.38;;;18.60;53.80;;;;;;5000371;28;20027;-88
2022/05/08 17:55:48;;;;;;;4.10;1.50;;;18.60;53.50;;;;;;4969630;28;20040;-87
2022/05/08 17:58:36;;;;;;;;;;;;;;;;;;;;;
2022/05/08 18:01:26;;;;;;;;;;;;;;;;;;;;;
2022/05/08 18:07:03;;;;;;;2.17;1.15;;;18.40;53.50;;;;;;5000947;28;20110;-87
2022/05/08 18:09:34;;;;;;;3.67;1.52;;;18.40;53.50;;;;;;4982023;28;20030;-89
2022/05/08 18:12:14;;;;;;;;;;;;;;;;;;;;;
2022/05/08 18:15:04;;;;;;;2.95;1.38;;;18.30;53.40;;;;;;5000352;28;19912;-87
2022/05/08 18:17:33;;;;;;;4.03;1.60;;;18.20;53.00;;;;;;4982129;28;20042;-85
2022/05/08 18:20:29;;;;;;;3.60;1.30;;;18.20;53.30;;;;;;4998306;28;20038;-86
2022/05/08 18:23:33;;;;;;;4.43;1.50;;;18.20;53.30;;;;;;4998686;28;20042;-87
2022/05/08 18:25:58;;;;;;;;;;;18.10;53.50;;;;;;4998240;28;20042;-86
2022/05/08 18:28:38;;;;;;;5.25;2.42;;;18.10;53.80;;;;;;4981912;28;19906;-86
2022/05/08 18:31:33;;;;;;;3.83;2.20;;;18.00;53.60;;;;;;5000049;28;20069;-89
2022/05/08 18:34:22;;;;;;;4.65;1.90;;;18.00;53.60;;;;;;4967889;28;20039;-87
2022/05/08 18:37:06;;;;;;;;;;;;;;;;;;;;;
2022/05/08 18:40:01;;;;;;;;;;;;;;;;;;;;;
2022/05/08 18:42:52;;;;;;;3.10;1.50;;;17.90;54.10;;;;;;4998323;28;20022;-87
2022/05/08 18:45:51;;;;;;;4.93;1.70;;;17.80;54.20;;;;;;4983710;28;20089;-86
2022/05/08 18:48:45;;;;;;;;;;;;;;;;;;;;;
2022/05/08 18:51:38;;;;;;;3.70;1.42;;;17.70;54.60;;;;;;4999980;28;20121;-86
2022/05/08 18:54:35;;;;;;;;;;;;;;;;;;;;;
2022/05/08 18:57:24;;;;;;;3.55;1.30;;;17.60;55.20;;;;;;4997993;28;20104;-86
2022/05/08 19:00:00;;;;;;;3.60;1.45;;;17.50;55.30;;;;;;4956881;28;20057;-87
2022/05/08 19:03:00;;;;;;;4.80;1.58;;;17.40;55.40;;;;;;4982646;28;20035;-87
2022/05/08 19:05:39;;;;;;;3.30;1.50;;;17.40;55.30;;;;;;4957063;28;20043;-87
2022/05/08 19:08:28;;;;;;;3.80;1.67;;;17.30;55.30;;;;;;4964919;28;20049;-87
2022/05/08 19:11:26;;;;;;;4.65;1.48;;;17.30;55.50;;;;;;4975110;28;20030;-85
2022/05/08 19:13:55;;;;;;;4.07;1.30;;;17.20;55.70;;;;;;4984161;28;20039;-86
2022/05/08 19:16:26;;;;;;;5.47;1.48;;;17.20;55.90;;;;;;4998370;28;20030;-87